This is the latest recevied weather packets stored in our database for station/object DM1RG-6. If no packets are shown the sender has not sent any weather packets the latest 10 day(s).
| Time | Temp. | Humidity | Pressure | Rain* | Wind** | Luminosity | Snow |
|---|---|---|---|---|---|---|---|
| 1777506843 | 0° C | 79% | 1031.4 hPa | 0 mm | - | - | - |
| 1777501443 | 1.67° C | 73% | 1031 hPa | 0 mm | - | - | - |
| 1777500723 | 1.67° C | 73% | 1031 hPa | 0 mm | - | - | - |
| 1777498204 | 2.78° C | 71% | 1030.8 hPa | 0 mm | - | - | - |
| 1777497843 | 2.78° C | 69% | 1030.8 hPa | 0 mm | - | - | - |
| 1777497483 | 3.33° C | 69% | 1030.9 hPa | 0 mm | - | - | - |
| 1777497124 | 3.33° C | 68% | 1030.6 hPa | 0 mm | - | - | - |
| 1777494243 | 4.44° C | 67% | 1030.6 hPa | 0 mm | - | - | - |
| 1777493884 | 5° C | 71% | 1030.5 hPa | 0 mm | - | - | - |
| 1777493524 | 5° C | 70% | 1030.5 hPa | 0 mm | - | - | - |
| 1777492084 | 5.56° C | 58% | 1030 hPa | 0 mm | - | - | - |
| 1777490643 | 6.67° C | 60% | 1029.8 hPa | 0 mm | - | - | - |
| 1777490283 | 7.22° C | 58% | 1030 hPa | 0 mm | - | - | - |
| 1777489924 | 7.22° C | 56% | 1030.1 hPa | 0 mm | - | - | - |
| 1777488844 | 8.33° C | 51% | 1029.6 hPa | 0 mm | - | - | - |
| 1777483443 | 12.78° C | 35% | 1028.9 hPa | 0 mm | - | - | - |
| 1777483083 | 12.78° C | 35% | 1029.2 hPa | 0 mm | - | - | - |
| 1777482724 | 12.78° C | 36% | 1028.9 hPa | 0 mm | - | - | - |
| 1777482364 | 12.78° C | 35% | 1029 hPa | 0 mm | - | - | - |
| 1777481644 | 12.78° C | 35% | 1029.1 hPa | 0 mm | - | - | - |
| 1777480564 | 12.78° C | 34% | 1028.9 hPa | 0 mm | - | - | - |
| 1777479843 | 12.78° C | 34% | 1029.1 hPa | 0 mm | - | - | - |
| 1777479483 | 13.33° C | 35% | 1029.1 hPa | 0 mm | - | - | - |
| 1777479124 | 13.33° C | 34% | 1028.9 hPa | 0 mm | - | - | - |
| 1777477684 | 13.33° C | 34% | 1028.9 hPa | 0 mm | - | - | - |
* Rain latest hour (hover to see other rain measurements)
** Current wind speed in m/s (hover to see current wind gust speed)